createdAt,value
2018-06-05T00:00:48.368Z,19.97
2018-06-05T00:03:17.923Z,20.93
2018-06-05T00:05:47.471Z,20.67
2018-06-05T00:08:16.969Z,19.97
2018-06-05T00:10:46.479Z,20.17
2018-06-05T00:13:15.985Z,20.20
2018-06-05T00:15:45.541Z,19.97
2018-06-05T00:18:15.022Z,22.23
2018-06-05T00:20:44.578Z,23.80
2018-06-05T00:23:14.053Z,24.53
2018-06-05T00:25:43.636Z,23.70
2018-06-05T00:28:13.109Z,22.00
2018-06-05T00:30:42.632Z,21.87
2018-06-05T00:33:12.121Z,21.70
2018-06-05T00:35:41.611Z,21.17
2018-06-05T00:38:11.116Z,19.30
2018-06-05T00:40:40.619Z,20.97
2018-06-05T00:43:10.106Z,21.57
2018-06-05T00:45:48.594Z,22.00
2018-06-05T00:48:18.162Z,20.60
2018-06-05T00:50:47.628Z,22.10
2018-06-05T00:53:17.115Z,23.70
2018-06-05T00:55:46.629Z,25.33
2018-06-05T00:58:16.106Z,24.70
2018-06-05T01:00:45.573Z,24.70
2018-06-05T01:03:15.054Z,26.40
2018-06-05T01:05:44.542Z,23.40
2018-06-05T01:08:14.026Z,22.07
2018-06-05T01:10:43.512Z,22.10
2018-06-05T01:13:13.020Z,21.30
2018-06-05T01:15:42.507Z,21.83
2018-06-05T01:18:12.014Z,22.43
2018-06-05T01:20:41.502Z,20.70
2018-06-05T01:23:10.431Z,22.20
2018-06-05T01:25:39.920Z,20.73
2018-06-05T01:28:09.391Z,22.47
2018-06-05T01:30:38.952Z,21.53
2018-06-05T01:33:08.430Z,21.03
2018-06-05T01:35:37.923Z,21.90
2018-06-05T01:38:07.407Z,20.37
2018-06-05T01:40:36.878Z,20.97
2018-06-05T01:43:06.367Z,20.50
2018-06-05T01:45:35.862Z,23.00
2018-06-05T01:48:05.443Z,22.63
2018-06-05T01:50:34.943Z,21.70
2018-06-05T01:53:04.442Z,22.57
2018-06-05T01:55:33.932Z,22.73
2018-06-05T01:58:03.440Z,23.00
2018-06-05T02:00:32.926Z,21.50
2018-06-05T02:03:02.407Z,23.63
2018-06-05T02:05:31.910Z,24.40
2018-06-05T02:08:01.402Z,22.60
2018-06-05T02:10:30.893Z,22.07
2018-06-05T02:13:00.396Z,21.70
2018-06-05T02:15:29.899Z,20.83
2018-06-05T02:17:59.385Z,22.47
2018-06-05T02:20:28.984Z,23.20
2018-06-05T02:22:58.472Z,25.10
2018-06-05T02:25:27.947Z,22.17
2018-06-05T02:27:57.558Z,21.83
2018-06-05T02:30:26.539Z,20.97
2018-06-05T02:32:56.024Z,19.93
2018-06-05T02:35:25.527Z,23.60
2018-06-05T02:37:55.005Z,22.00
2018-06-05T02:40:24.509Z,21.70
2018-06-05T02:42:54.003Z,21.30
2018-06-05T02:45:23.487Z,22.37
2018-06-05T02:47:52.978Z,23.40
2018-06-05T02:50:22.476Z,23.20
2018-06-05T02:52:51.981Z,24.70
2018-06-05T02:55:20.921Z,22.00
2018-06-05T02:57:50.405Z,22.70
2018-06-05T03:00:19.909Z,22.30
2018-06-05T03:02:49.402Z,24.00
2018-06-05T03:05:18.898Z,24.03
2018-06-05T03:07:48.372Z,20.73
2018-06-05T03:10:17.859Z,23.60
2018-06-05T03:12:47.354Z,22.30
2018-06-05T03:15:16.849Z,21.80
2018-06-05T03:17:46.349Z,23.43
2018-06-05T03:20:15.822Z,21.03
2018-06-05T03:22:45.307Z,22.60
2018-06-05T03:25:14.849Z,23.67
2018-06-05T03:27:44.362Z,21.40
2018-06-05T03:30:13.929Z,22.20
2018-06-05T03:32:43.414Z,24.03
2018-06-05T03:35:12.929Z,20.60
2018-06-05T03:37:42.508Z,23.50
2018-06-05T03:40:12.006Z,22.80
2018-06-05T03:42:41.560Z,23.53
2018-06-05T03:45:11.046Z,24.07
2018-06-05T03:47:40.548Z,19.80
2018-06-05T03:50:10.037Z,22.27
2018-06-05T03:52:39.508Z,22.50
2018-06-05T03:55:08.972Z,20.83
2018-06-05T03:57:38.492Z,19.93
2018-06-05T04:00:08.012Z,21.10
2018-06-05T04:02:37.464Z,19.90
2018-06-05T04:05:06.363Z,19.47
2018-06-05T04:07:35.875Z,19.27
2018-06-05T04:10:05.424Z,19.33
2018-06-05T04:12:34.881Z,20.57
2018-06-05T04:15:05.426Z,20.17
2018-06-05T04:17:41.067Z,17.93
2018-06-05T04:20:15.389Z,18.87
2018-06-05T04:22:45.157Z,17.80
2018-06-05T04:25:14.600Z,19.43
2018-06-05T04:27:43.492Z,18.00
2018-06-05T04:30:13.033Z,20.97
2018-06-05T04:32:42.626Z,19.07
2018-06-05T04:35:12.108Z,19.17
2018-06-05T04:37:41.573Z,18.90
2018-06-05T04:40:11.663Z,18.07
2018-06-05T04:42:41.128Z,18.63
2018-06-05T04:45:10.646Z,18.57
2018-06-05T04:47:40.141Z,18.40
2018-06-05T04:50:09.617Z,18.60
2018-06-05T04:52:39.090Z,17.50
2018-06-05T04:55:08.624Z,16.80
2018-06-05T04:57:38.081Z,20.57
2018-06-05T05:00:07.014Z,19.47
2018-06-05T05:02:36.464Z,18.97
2018-06-05T05:05:05.399Z,19.43
2018-06-05T05:07:34.867Z,22.07
2018-06-05T05:10:09.935Z,22.87
2018-06-05T05:12:39.416Z,18.60
2018-06-05T05:15:08.901Z,23.93
2018-06-05T05:17:38.384Z,24.83
2018-06-05T05:20:07.938Z,23.70
2018-06-05T05:22:37.400Z,24.00
2018-06-05T05:25:06.862Z,26.07
2018-06-05T05:27:36.345Z,27.27
2018-06-05T05:30:05.962Z,31.40
2018-06-05T05:32:35.470Z,29.80
2018-06-05T05:35:05.135Z,30.60
2018-06-05T05:37:34.585Z,27.83
2018-06-05T05:40:04.155Z,29.10
2018-06-05T05:42:33.644Z,30.73
2018-06-05T05:45:03.135Z,29.50
2018-06-05T05:47:32.579Z,28.30
2018-06-05T05:50:02.057Z,30.80
2018-06-05T05:52:31.563Z,29.43
2018-06-05T05:55:01.038Z,29.83
2018-06-05T05:57:30.504Z,28.67
2018-06-05T05:59:59.972Z,27.93
2018-06-05T06:02:29.459Z,30.30
2018-06-05T06:04:58.947Z,30.83
2018-06-05T06:07:28.404Z,30.10
2018-06-05T06:09:57.872Z,29.20
2018-06-05T06:12:27.364Z,29.53
2018-06-05T06:14:56.821Z,30.77
2018-06-05T06:17:26.289Z,26.20
2018-06-05T06:19:55.765Z,28.50
2018-06-05T06:22:25.249Z,28.50
2018-06-05T06:24:54.859Z,26.97
2018-06-05T06:27:24.304Z,29.20
2018-06-05T06:29:53.822Z,28.10
2018-06-05T06:32:23.268Z,28.10
2018-06-05T06:34:52.715Z,29.17
2018-06-05T06:37:22.167Z,28.80
2018-06-05T06:39:51.714Z,29.20
2018-06-05T06:42:21.182Z,27.50
2018-06-05T06:44:50.676Z,28.07
2018-06-05T06:47:20.117Z,29.03
2018-06-05T06:49:49.558Z,28.83
2018-06-05T06:52:19.014Z,30.43
2018-06-05T06:54:48.505Z,28.90
2018-06-05T06:57:18.002Z,29.90
2018-06-05T06:59:47.438Z,28.30
2018-06-05T07:02:16.900Z,30.83
2018-06-05T07:04:46.382Z,28.97
2018-06-05T07:07:15.841Z,28.40
2018-06-05T07:09:45.269Z,29.30
2018-06-05T07:12:14.769Z,28.50
2018-06-05T07:14:44.233Z,30.20
2018-06-05T07:17:13.678Z,30.90
2018-06-05T07:19:43.132Z,28.00
2018-06-05T07:22:12.582Z,28.63
2018-06-05T07:24:42.030Z,28.87
2018-06-05T07:27:11.478Z,29.53
2018-06-05T07:29:41.033Z,30.57
2018-06-05T07:32:10.562Z,29.67
2018-06-05T07:34:40.058Z,32.47
2018-06-05T07:37:09.568Z,31.20
2018-06-05T07:39:39.053Z,30.67
2018-06-05T07:42:08.543Z,29.30
2018-06-05T07:44:38.021Z,31.47
2018-06-05T07:47:07.509Z,32.50
2018-06-05T07:49:37.013Z,31.53
2018-06-05T07:52:06.644Z,27.60
2018-06-05T07:54:36.136Z,31.00
2018-06-05T07:57:05.694Z,29.23
2018-06-05T07:59:40.738Z,30.57
2018-06-05T08:02:10.330Z,29.37
2018-06-05T08:04:39.801Z,30.67
2018-06-05T08:07:09.352Z,32.90
2018-06-05T08:09:38.886Z,32.17
2018-06-05T08:12:08.392Z,31.50
2018-06-05T08:14:38.054Z,32.87
2018-06-05T08:17:07.536Z,33.57
2018-06-05T08:19:37.198Z,33.40
2018-06-05T08:22:06.873Z,32.30
2018-06-05T08:24:36.438Z,34.10
2018-06-05T08:27:06.018Z,31.67
2018-06-05T08:29:35.710Z,27.00
2018-06-05T08:32:05.307Z,30.40
2018-06-05T08:34:34.874Z,32.93
2018-06-05T08:37:04.380Z,31.57
2018-06-05T08:39:33.919Z,29.37
2018-06-05T08:42:03.396Z,29.87
2018-06-05T08:44:32.972Z,29.17
2018-06-05T08:47:02.458Z,29.50
2018-06-05T08:49:31.953Z,30.43
2018-06-05T08:52:01.435Z,27.43
2018-06-05T08:54:30.991Z,29.27
2018-06-05T08:57:00.485Z,28.80
2018-06-05T08:59:29.967Z,27.97
2018-06-05T09:02:07.644Z,27.10
2018-06-05T09:04:42.822Z,25.10
2018-06-05T09:07:15.618Z,27.67
2018-06-05T09:09:49.198Z,24.70
2018-06-05T09:12:20.699Z,24.70
2018-06-05T09:14:50.324Z,25.43
2018-06-05T09:17:19.934Z,23.17
2018-06-05T09:19:49.604Z,22.23
2018-06-05T09:22:19.109Z,24.87
2018-06-05T09:24:48.681Z,21.43
2018-06-05T09:27:25.348Z,20.13
2018-06-05T09:29:54.996Z,23.43
2018-06-05T09:32:24.478Z,22.60
2018-06-05T09:34:54.058Z,21.23
2018-06-05T09:37:24.052Z,21.90
2018-06-05T09:39:53.753Z,21.00
2018-06-05T09:42:23.578Z,20.57
2018-06-05T09:44:53.099Z,20.73
2018-06-05T09:47:22.666Z,21.80
2018-06-05T09:49:52.175Z,22.03
2018-06-05T09:52:21.786Z,19.60
2018-06-05T09:54:51.289Z,21.20
2018-06-05T09:57:20.812Z,20.27
2018-06-05T09:59:53.474Z,21.90
2018-06-05T10:02:22.963Z,19.37
2018-06-05T10:04:52.485Z,16.87
2018-06-05T10:07:22.047Z,17.23
2018-06-05T10:09:51.510Z,16.90
2018-06-05T10:12:20.987Z,15.40
2018-06-05T10:14:50.860Z,16.53
2018-06-05T10:17:20.460Z,17.00
2018-06-05T10:19:49.977Z,17.30
2018-06-05T10:22:19.474Z,16.60
2018-06-05T10:24:48.999Z,16.60
2018-06-05T10:27:18.477Z,12.80
2018-06-05T10:29:47.991Z,14.60
2018-06-05T10:32:17.528Z,14.67
2018-06-05T10:34:47.114Z,13.43
2018-06-05T10:37:16.774Z,13.53
2018-06-05T10:39:46.998Z,12.70
2018-06-05T10:42:18.696Z,13.43
2018-06-05T10:44:49.651Z,14.10
2018-06-05T10:47:19.193Z,12.30
2018-06-05T10:49:49.826Z,11.87
2018-06-05T10:52:19.345Z,15.10
2018-06-05T10:54:52.028Z,13.47
2018-06-05T10:57:22.388Z,15.20
2018-06-05T10:59:51.924Z,12.03
2018-06-05T11:02:21.471Z,12.87
2018-06-05T11:04:51.582Z,9.30
2018-06-05T11:07:22.367Z,11.33
2018-06-05T11:09:52.101Z,11.80
2018-06-05T11:12:21.628Z,11.33
2018-06-05T11:14:51.106Z,10.10
2018-06-05T11:17:26.289Z,11.10
2018-06-05T11:19:59.207Z,9.77
2018-06-05T11:22:28.687Z,9.50
2018-06-05T11:24:58.311Z,11.30
2018-06-05T11:27:27.802Z,11.00
2018-06-05T11:29:57.372Z,10.03
2018-06-05T11:32:27.656Z,9.07
2018-06-05T11:34:57.157Z,10.07
2018-06-05T11:37:26.657Z,11.07
2018-06-05T11:39:56.203Z,9.30
2018-06-05T11:42:25.680Z,7.60
2018-06-05T11:44:54.601Z,8.07
2018-06-05T11:47:24.085Z,8.00
2018-06-05T11:49:52.995Z,8.60
2018-06-05T11:52:22.492Z,7.97
2018-06-05T11:54:51.985Z,8.77
2018-06-05T11:57:21.460Z,6.67
2018-06-05T11:59:51.044Z,7.23
2018-06-05T12:02:20.510Z,7.87
2018-06-05T12:04:51.192Z,9.67
2018-06-05T12:07:20.705Z,8.70
2018-06-05T12:09:50.199Z,6.57
2018-06-05T12:12:19.794Z,7.60
2018-06-05T12:14:49.272Z,6.67
2018-06-05T12:17:18.740Z,6.87
2018-06-05T12:19:48.241Z,6.67
2018-06-05T12:22:17.764Z,6.60
2018-06-05T12:24:47.424Z,6.80
2018-06-05T12:27:16.971Z,6.03
2018-06-05T12:29:46.721Z,7.80
2018-06-05T12:32:17.539Z,7.37
2018-06-05T12:34:47.223Z,6.83
2018-06-05T12:37:16.803Z,8.33
2018-06-05T12:39:46.437Z,6.90
2018-06-05T12:42:17.831Z,8.80
2018-06-05T12:44:47.419Z,8.87
2018-06-05T12:47:17.061Z,8.63
2018-06-05T12:49:46.621Z,7.90
2018-06-05T12:52:16.150Z,6.40
2018-06-05T12:54:52.177Z,5.70
2018-06-05T12:57:27.595Z,5.03
2018-06-05T13:00:03.474Z,7.30
2018-06-05T13:02:39.843Z,8.20
2018-06-05T13:05:14.903Z,8.03
2018-06-05T13:07:48.134Z,7.33
2018-06-05T13:10:23.066Z,6.80
2018-06-05T13:12:58.094Z,6.33
2018-06-05T13:15:34.699Z,5.83
2018-06-05T13:18:13.557Z,4.87
2018-06-05T13:20:49.763Z,6.20
2018-06-05T13:23:23.309Z,6.90
2018-06-05T13:26:00.423Z,5.93
2018-06-05T13:28:35.489Z,7.10
2018-06-05T13:31:10.090Z,7.90
2018-06-05T13:33:44.913Z,8.10
2018-06-05T13:36:18.258Z,9.00
2018-06-05T13:38:55.415Z,8.00
2018-06-05T13:41:28.743Z,8.00
2018-06-05T13:44:03.776Z,8.23
2018-06-05T13:46:38.815Z,8.83
2018-06-05T13:49:12.459Z,7.97
2018-06-05T13:51:47.847Z,8.40
2018-06-05T13:54:20.639Z,8.70
2018-06-05T13:56:55.886Z,8.57
2018-06-05T13:59:31.161Z,8.90
2018-06-05T14:02:07.164Z,9.80
2018-06-05T14:04:42.928Z,9.83
2018-06-05T14:07:17.873Z,10.20
2018-06-05T14:09:51.765Z,8.30
2018-06-05T14:12:25.027Z,10.63
2018-06-05T14:14:54.567Z,9.80
2018-06-05T14:17:24.200Z,9.30
2018-06-05T14:19:53.691Z,10.43
2018-06-05T14:22:23.165Z,10.53
2018-06-05T14:24:52.669Z,11.03
2018-06-05T14:27:22.280Z,10.10
2018-06-05T14:29:51.821Z,11.30
2018-06-05T14:32:21.314Z,11.97
2018-06-05T14:34:50.797Z,11.63
2018-06-05T14:37:20.866Z,10.47
2018-06-05T14:39:50.344Z,11.27
2018-06-05T14:42:19.834Z,12.47
2018-06-05T14:44:48.772Z,10.80
2018-06-05T14:47:18.306Z,11.10
2018-06-05T14:49:47.787Z,11.93
2018-06-05T14:52:17.324Z,11.43
2018-06-05T14:54:46.834Z,12.13
2018-06-05T14:57:16.393Z,13.50
2018-06-05T14:59:46.907Z,12.43
2018-06-05T15:02:16.599Z,12.13
2018-06-05T15:04:45.557Z,12.03
2018-06-05T15:07:15.062Z,13.20
2018-06-05T15:09:46.518Z,14.83
2018-06-05T15:12:25.203Z,13.80
2018-06-05T15:14:57.283Z,11.87
2018-06-05T15:17:29.303Z,14.50
2018-06-05T15:20:01.108Z,16.53
2018-06-05T15:22:33.132Z,17.93
2018-06-05T15:25:02.673Z,17.57
2018-06-05T15:27:32.221Z,17.90
2018-06-05T15:30:01.741Z,17.93
2018-06-05T15:32:31.330Z,17.90
2018-06-05T15:35:12.641Z,17.70
2018-06-05T15:37:48.466Z,17.20
2018-06-05T15:40:24.020Z,18.27
2018-06-05T15:42:54.633Z,19.67
2018-06-05T15:45:24.354Z,18.43
2018-06-05T15:47:58.054Z,19.53
2018-06-05T15:50:27.660Z,20.40
2018-06-05T15:52:57.159Z,20.00
2018-06-05T15:55:26.666Z,19.73
2018-06-05T15:57:56.346Z,20.00
2018-06-05T16:00:25.887Z,18.07
2018-06-05T16:02:55.454Z,18.60
2018-06-05T16:05:24.966Z,19.87
2018-06-05T16:07:54.515Z,18.50
2018-06-05T16:10:24.049Z,18.93
2018-06-05T16:12:53.535Z,21.07
2018-06-05T16:15:27.209Z,20.43
2018-06-05T16:17:57.086Z,19.03
2018-06-05T16:20:26.567Z,25.40
2018-06-05T16:22:56.131Z,23.13
2018-06-05T16:25:25.624Z,32.30
2018-06-05T16:27:55.242Z,20.47
2018-06-05T16:30:24.896Z,22.87
2018-06-05T16:32:54.496Z,19.53
2018-06-05T16:35:24.035Z,21.63
2018-06-05T16:37:58.737Z,19.70
2018-06-05T16:40:28.435Z,21.93
2018-06-05T16:42:57.982Z,22.27
2018-06-05T16:45:27.597Z,22.53
2018-06-05T16:47:57.118Z,21.37
2018-06-05T16:50:26.620Z,18.87
2018-06-05T16:52:56.244Z,20.40
2018-06-05T16:55:25.769Z,23.03
2018-06-05T16:57:55.293Z,19.20
2018-06-05T17:00:24.808Z,20.27
2018-06-05T17:02:54.311Z,19.67
2018-06-05T17:05:23.810Z,18.50
2018-06-05T17:07:53.309Z,18.17
2018-06-05T17:10:22.798Z,17.80
2018-06-05T17:12:52.300Z,17.40
2018-06-05T17:15:21.920Z,17.27
2018-06-05T17:17:51.593Z,17.13
2018-06-05T17:20:21.089Z,17.40
2018-06-05T17:22:50.654Z,17.50
2018-06-05T17:25:20.162Z,20.97
2018-06-05T17:27:49.660Z,20.13
2018-06-05T17:30:19.230Z,17.50
2018-06-05T17:32:48.739Z,18.57
2018-06-05T17:35:18.194Z,21.50
2018-06-05T17:37:47.735Z,19.37
2018-06-05T17:40:17.260Z,18.43
2018-06-05T17:42:46.752Z,19.60
2018-06-05T17:45:16.217Z,26.67
2018-06-05T17:47:45.811Z,23.23
2018-06-05T17:50:15.284Z,22.30
2018-06-05T17:52:49.004Z,21.30
2018-06-05T17:55:18.497Z,21.60
2018-06-05T17:57:51.674Z,22.33
2018-06-05T18:00:21.193Z,21.50
2018-06-05T18:02:52.226Z,23.20
2018-06-05T18:05:21.700Z,22.10
2018-06-05T18:07:53.669Z,22.73
2018-06-05T18:10:23.161Z,23.93
2018-06-05T18:13:04.580Z,23.77
2018-06-05T18:15:34.202Z,23.97
2018-06-05T18:18:03.704Z,24.00
2018-06-05T18:20:33.162Z,24.57
2018-06-05T18:23:04.743Z,24.87
2018-06-05T18:25:36.996Z,26.63
2018-06-05T18:28:08.613Z,26.03
2018-06-05T18:30:50.781Z,26.57
2018-06-05T18:33:22.389Z,27.07
2018-06-05T18:36:12.009Z,24.97
2018-06-05T18:38:41.752Z,25.43
2018-06-05T18:41:11.491Z,23.67
2018-06-05T18:43:44.379Z,26.63
2018-06-05T18:46:13.899Z,25.30
2018-06-05T18:48:45.258Z,26.00
2018-06-05T18:51:14.747Z,27.40
2018-06-05T18:53:44.342Z,27.10
2018-06-05T18:56:13.957Z,25.83
2018-06-05T18:58:43.477Z,23.80
2018-06-05T19:01:13.184Z,25.57
2018-06-05T19:03:42.717Z,24.80
2018-06-05T19:06:12.254Z,24.47
2018-06-05T19:08:41.780Z,27.70
2018-06-05T19:11:11.316Z,25.47
2018-06-05T19:13:40.892Z,26.57
2018-06-05T19:16:10.471Z,26.33
2018-06-05T19:18:39.985Z,25.73
2018-06-05T19:21:09.540Z,24.47
2018-06-05T19:23:39.048Z,24.67
2018-06-05T19:26:08.559Z,24.10
2018-06-05T19:28:38.102Z,23.83
2018-06-05T19:31:07.736Z,25.27
2018-06-05T19:33:37.285Z,27.00
2018-06-05T19:36:07.056Z,25.87
2018-06-05T19:38:36.599Z,24.53
2018-06-05T19:41:06.155Z,26.00
2018-06-05T19:43:35.848Z,25.13
2018-06-05T19:46:11.890Z,25.67
2018-06-05T19:48:42.242Z,25.33
2018-06-05T19:51:12.549Z,26.17
2018-06-05T19:53:42.045Z,29.23
2018-06-05T19:56:11.562Z,27.57
2018-06-05T19:58:41.076Z,24.67
2018-06-05T20:01:10.704Z,26.23
2018-06-05T20:03:40.217Z,25.63
2018-06-05T20:06:09.849Z,27.60
2018-06-05T20:08:39.374Z,26.27
2018-06-05T20:11:08.913Z,27.07
2018-06-05T20:13:38.993Z,27.00
2018-06-05T20:16:08.509Z,27.70
2018-06-05T20:18:38.075Z,27.13
2018-06-05T20:21:07.655Z,25.20
2018-06-05T20:23:37.198Z,27.30
2018-06-05T20:26:06.790Z,25.53
2018-06-05T20:28:36.370Z,26.43
2018-06-05T20:31:05.955Z,25.80
2018-06-05T20:33:35.529Z,28.30
2018-06-05T20:36:05.049Z,24.53
2018-06-05T20:38:34.598Z,26.00
2018-06-05T20:41:04.227Z,27.27
2018-06-05T20:43:33.163Z,24.70
2018-06-05T20:46:02.681Z,24.03
2018-06-05T20:48:32.176Z,24.30
2018-06-05T20:51:01.700Z,23.40
2018-06-05T20:53:31.271Z,27.27
2018-06-05T20:56:00.798Z,25.60
2018-06-05T20:58:38.006Z,25.27
2018-06-05T21:01:07.848Z,24.73
2018-06-05T21:03:40.852Z,24.63
2018-06-05T21:06:12.401Z,25.20
2018-06-05T21:08:42.043Z,22.93
2018-06-05T21:11:18.711Z,24.63
2018-06-05T21:13:55.478Z,24.33
2018-06-05T21:16:25.158Z,24.50
2018-06-05T21:18:54.754Z,28.00
2018-06-05T21:21:24.248Z,28.27
2018-06-05T21:23:53.766Z,26.87
2018-06-05T21:26:23.335Z,23.10
2018-06-05T21:28:52.911Z,21.70
2018-06-05T21:31:23.831Z,24.10
2018-06-05T21:33:53.307Z,25.23
2018-06-05T21:36:24.672Z,24.50
2018-06-05T21:38:54.180Z,23.73
2018-06-05T21:41:27.052Z,24.67
2018-06-05T21:44:19.118Z,24.77
2018-06-05T21:46:48.601Z,23.00
2018-06-05T21:49:18.104Z,24.33
2018-06-05T21:51:48.777Z,25.97
2018-06-05T21:54:18.308Z,23.83
2018-06-05T21:56:47.784Z,22.20
2018-06-05T21:59:17.268Z,24.37
2018-06-05T22:01:46.808Z,25.70
2018-06-05T22:04:16.288Z,25.47
2018-06-05T22:06:45.795Z,23.87
2018-06-05T22:09:15.282Z,23.00
2018-06-05T22:11:46.516Z,23.70
2018-06-05T22:14:18.142Z,24.47
2018-06-05T22:16:47.631Z,23.87
2018-06-05T22:19:17.917Z,24.77
2018-06-05T22:21:47.410Z,23.20
2018-06-05T22:24:21.424Z,24.93
2018-06-05T22:26:55.042Z,23.07
2018-06-05T22:29:24.998Z,25.23
2018-06-05T22:31:56.956Z,26.07
2018-06-05T22:34:27.994Z,25.30
2018-06-05T22:36:58.943Z,24.60
2018-06-05T22:39:30.816Z,23.90
2018-06-05T22:42:00.946Z,24.00
2018-06-05T22:44:30.482Z,23.13
2018-06-05T22:47:04.799Z,23.23
2018-06-05T22:49:35.769Z,22.07
2018-06-05T22:52:04.804Z,24.03
2018-06-05T22:54:34.400Z,24.93
2018-06-05T22:57:05.733Z,22.40
2018-06-05T22:59:36.926Z,26.20
2018-06-05T23:02:06.747Z,25.60
2018-06-05T23:04:36.276Z,25.47
2018-06-05T23:07:06.616Z,24.50
2018-06-05T23:09:39.280Z,23.13
2018-06-05T23:12:10.432Z,21.77
2018-06-05T23:14:41.541Z,23.77
2018-06-05T23:17:12.273Z,22.60
2018-06-05T23:19:42.719Z,22.77
2018-06-05T23:22:12.321Z,22.13
2018-06-05T23:24:41.823Z,22.80
2018-06-05T23:27:19.876Z,21.40
2018-06-05T23:29:49.552Z,24.77
2018-06-05T23:32:19.078Z,25.40
2018-06-05T23:34:48.572Z,23.40
2018-06-05T23:37:18.074Z,23.17
2018-06-05T23:39:48.800Z,25.97
2018-06-05T23:42:18.520Z,23.57
2018-06-05T23:44:48.103Z,23.97
2018-06-05T23:47:17.610Z,24.20
2018-06-05T23:49:47.093Z,22.77
2018-06-05T23:52:16.568Z,23.07
2018-06-05T23:54:46.056Z,24.93
2018-06-05T23:57:15.556Z,25.20
2018-06-05T23:59:45.156Z,22.50
